EVY23 YSSY-YSCB
Flight info
| Callsign | EVY23 |
|---|---|
| Flight time | 0h 31m |
| Altitude | 24000 |
| Route | WOL H65 LEECE |
| Aircraft | B38M/M-SADE2E3FGHIJ1J3J4J7M3P2RWXYZ/LB1D1 |
Departure
| Time | 2026-04-30 10:50 |
|---|---|
| Airport | Sydney Kingsford Smith International Airport (YSSY) |
Arrival
| Time | 2026-04-30 11:21 |
|---|---|
| Airport | Canberra Airport (YSCB) |
| Time | Latitude | Longitude | Altitude | Speed | Heading |
|---|---|---|---|---|---|
| 2026-04-30 10:37 | -33.93522 | 151.18957 | 32 ft | 0 kts | 343° |
| 2026-04-30 10:47 | -33.93517 | 151.18955 | 32 ft | 3 kts | 342° |
| 2026-04-30 10:47 | -33.93510 | 151.18944 | 32 ft | 1 kts | 273° |
| 2026-04-30 10:47 | -33.93516 | 151.18938 | 32 ft | 2 kts | 212° |
| 2026-04-30 10:48 | -33.93557 | 151.18933 | 32 ft | 7 kts | 183° |
| 2026-04-30 10:48 | -33.93561 | 151.18933 | 32 ft | 0 kts | 182° |
| 2026-04-30 10:48 | -33.93576 | 151.18933 | 32 ft | 7 kts | 178° |
| 2026-04-30 10:48 | -33.93648 | 151.18945 | 31 ft | 14 kts | 168° |
| 2026-04-30 10:49 | -33.93743 | 151.18968 | 27 ft | 10 kts | 182° |
| 2026-04-30 10:49 | -33.93764 | 151.18935 | 28 ft | 7 kts | 254° |
| 2026-04-30 10:49 | -33.93795 | 151.18808 | 28 ft | 46 kts | 253° |
| 2026-04-30 10:49 | -33.93970 | 151.18088 | 32 ft | 130 kts | 254° |
| 2026-04-30 10:50 | -33.94269 | 151.16835 | 325 ft | 168 kts | 255° |
| 2026-04-30 10:50 | -33.94615 | 151.15511 | 1185 ft | 175 kts | 252° |
| 2026-04-30 10:50 | -33.95001 | 151.14040 | 2065 ft | 186 kts | 253° |
| 2026-04-30 10:50 | -33.95407 | 151.12523 | 3003 ft | 193 kts | 252° |
| 2026-04-30 10:51 | -33.95821 | 151.10980 | 3537 ft | 194 kts | 252° |
| 2026-04-30 10:51 | -33.96241 | 151.09411 | 3845 ft | 202 kts | 252° |
| 2026-04-30 10:51 | -33.96689 | 151.07732 | 4038 ft | 220 kts | 253° |
| 2026-04-30 10:51 | -33.97178 | 151.05905 | 4167 ft | 238 kts | 252° |
| 2026-04-30 10:52 | -33.97700 | 151.03946 | 4230 ft | 254 kts | 252° |
| 2026-04-30 10:52 | -33.98257 | 151.01854 | 4279 ft | 266 kts | 253° |
| 2026-04-30 10:52 | -33.98989 | 150.99789 | 4342 ft | 274 kts | 233° |
| 2026-04-30 10:52 | -34.00469 | 150.98398 | 5050 ft | 275 kts | 207° |
| 2026-04-30 10:53 | -34.02239 | 150.97561 | 6457 ft | 275 kts | 196° |
| 2026-04-30 10:53 | -34.04097 | 150.96911 | 7677 ft | 282 kts | 195° |
| 2026-04-30 10:53 | -34.05994 | 150.96257 | 8894 ft | 286 kts | 195° |
| 2026-04-30 10:53 | -34.07950 | 150.95585 | 10155 ft | 291 kts | 194° |
| 2026-04-30 10:54 | -34.09919 | 150.94908 | 11092 ft | 305 kts | 195° |
| 2026-04-30 10:54 | -34.11998 | 150.94193 | 12046 ft | 318 kts | 195° |
| 2026-04-30 10:54 | -34.14138 | 150.93457 | 13278 ft | 321 kts | 195° |
| 2026-04-30 10:54 | -34.16300 | 150.92715 | 14513 ft | 326 kts | 195° |
| 2026-04-30 10:55 | -34.18505 | 150.91958 | 15655 ft | 331 kts | 195° |
| 2026-04-30 10:55 | -34.20759 | 150.91184 | 16801 ft | 336 kts | 195° |
| 2026-04-30 10:55 | -34.23026 | 150.90405 | 17906 ft | 341 kts | 195° |
| 2026-04-30 10:55 | -34.25260 | 150.89637 | 18930 ft | 346 kts | 195° |
| 2026-04-30 10:56 | -34.27599 | 150.88832 | 19857 ft | 351 kts | 195° |
| 2026-04-30 10:56 | -34.29963 | 150.88018 | 20785 ft | 356 kts | 195° |
| 2026-04-30 10:56 | -34.32358 | 150.87194 | 21693 ft | 360 kts | 195° |
| 2026-04-30 10:56 | -34.34783 | 150.86358 | 22583 ft | 365 kts | 195° |
| 2026-04-30 10:57 | -34.37241 | 150.85511 | 23448 ft | 369 kts | 195° |
| 2026-04-30 10:57 | -34.39727 | 150.84653 | 24170 ft | 377 kts | 195° |
| 2026-04-30 10:57 | -34.42263 | 150.83778 | 24362 ft | 378 kts | 195° |
| 2026-04-30 10:57 | -34.44831 | 150.82891 | 24401 ft | 388 kts | 195° |
| 2026-04-30 10:58 | -34.47442 | 150.81989 | 24415 ft | 393 kts | 195° |
| 2026-04-30 10:58 | -34.50080 | 150.81077 | 24422 ft | 395 kts | 196° |
| 2026-04-30 10:58 | -34.52728 | 150.80155 | 24428 ft | 396 kts | 197° |
| 2026-04-30 10:58 | -34.55208 | 150.78738 | 24436 ft | 396 kts | 214° |
| 2026-04-30 10:59 | -34.57213 | 150.76457 | 24455 ft | 397 kts | 230° |
| 2026-04-30 10:59 | -34.58891 | 150.73808 | 24455 ft | 398 kts | 232° |
| 2026-04-30 10:59 | -34.60565 | 150.71120 | 24453 ft | 398 kts | 232° |
| 2026-04-30 10:59 | -34.62214 | 150.68432 | 24438 ft | 398 kts | 232° |
| 2026-04-30 11:00 | -34.63857 | 150.65726 | 24452 ft | 398 kts | 233° |
| 2026-04-30 11:00 | -34.65495 | 150.63011 | 24438 ft | 398 kts | 233° |
| 2026-04-30 11:00 | -34.67123 | 150.60307 | 24449 ft | 398 kts | 233° |
| 2026-04-30 11:00 | -34.68757 | 150.57589 | 24454 ft | 398 kts | 233° |
| 2026-04-30 11:01 | -34.70388 | 150.54873 | 24453 ft | 398 kts | 233° |
| 2026-04-30 11:01 | -34.72018 | 150.52157 | 24456 ft | 397 kts | 233° |
| 2026-04-30 11:01 | -34.73647 | 150.49440 | 24456 ft | 397 kts | 233° |
| 2026-04-30 11:01 | -34.75274 | 150.46725 | 24450 ft | 397 kts | 233° |
| 2026-04-30 11:02 | -34.76898 | 150.44014 | 24454 ft | 397 kts | 233° |
| 2026-04-30 11:02 | -34.78505 | 150.41326 | 24455 ft | 397 kts | 233° |
| 2026-04-30 11:02 | -34.80130 | 150.38608 | 24447 ft | 397 kts | 233° |
| 2026-04-30 11:02 | -34.81775 | 150.35855 | 24455 ft | 397 kts | 233° |
| 2026-04-30 11:03 | -34.83376 | 150.33172 | 24458 ft | 397 kts | 233° |
| 2026-04-30 11:03 | -34.85020 | 150.30417 | 24458 ft | 397 kts | 233° |
| 2026-04-30 11:03 | -34.86622 | 150.27730 | 24457 ft | 397 kts | 233° |
| 2026-04-30 11:04 | -34.89864 | 150.22284 | 24461 ft | 397 kts | 233° |
| 2026-04-30 11:04 | -34.91482 | 150.19563 | 24460 ft | 397 kts | 233° |
| 2026-04-30 11:04 | -34.93093 | 150.16851 | 24112 ft | 394 kts | 233° |
| 2026-04-30 11:04 | -34.94720 | 150.14109 | 23070 ft | 402 kts | 233° |
| 2026-04-30 11:05 | -34.96353 | 150.11357 | 22493 ft | 398 kts | 233° |
| 2026-04-30 11:05 | -34.97961 | 150.08643 | 21929 ft | 392 kts | 233° |
| 2026-04-30 11:05 | -34.99553 | 150.05956 | 21362 ft | 389 kts | 234° |
| 2026-04-30 11:05 | -35.01131 | 150.03290 | 20798 ft | 386 kts | 234° |
| 2026-04-30 11:06 | -35.02696 | 150.00645 | 20245 ft | 383 kts | 234° |
| 2026-04-30 11:06 | -35.04248 | 149.98020 | 19698 ft | 381 kts | 234° |
| 2026-04-30 11:06 | -35.05864 | 149.95482 | 19106 ft | 379 kts | 226° |
| 2026-04-30 11:06 | -35.07116 | 149.93941 | 18741 ft | 378 kts | 225° |
| 2026-04-30 11:07 | -35.08906 | 149.91665 | 18174 ft | 374 kts | 226° |
| 2026-04-30 11:07 | -35.10710 | 149.89339 | 17644 ft | 371 kts | 226° |
| 2026-04-30 11:07 | -35.12438 | 149.87089 | 17146 ft | 367 kts | 227° |
| 2026-04-30 11:07 | -35.14172 | 149.84819 | 16646 ft | 363 kts | 227° |
| 2026-04-30 11:08 | -35.15881 | 149.82578 | 16159 ft | 359 kts | 227° |
| 2026-04-30 11:08 | -35.17577 | 149.80350 | 15678 ft | 356 kts | 227° |
| 2026-04-30 11:08 | -35.19270 | 149.78157 | 15140 ft | 355 kts | 226° |
| 2026-04-30 11:08 | -35.20963 | 149.75967 | 14675 ft | 352 kts | 226° |
| 2026-04-30 11:09 | -35.22636 | 149.73803 | 14220 ft | 349 kts | 226° |
| 2026-04-30 11:09 | -35.24298 | 149.71649 | 13695 ft | 347 kts | 226° |
| 2026-04-30 11:09 | -35.25945 | 149.69512 | 13208 ft | 344 kts | 227° |
| 2026-04-30 11:09 | -35.27581 | 149.67391 | 12725 ft | 341 kts | 227° |
| 2026-04-30 11:10 | -35.29202 | 149.65285 | 12276 ft | 338 kts | 227° |
| 2026-04-30 11:10 | -35.30808 | 149.63198 | 11820 ft | 335 kts | 227° |
| 2026-04-30 11:10 | -35.32397 | 149.61133 | 11475 ft | 330 kts | 227° |
| 2026-04-30 11:10 | -35.33945 | 149.59120 | 11287 ft | 320 kts | 227° |
| 2026-04-30 11:11 | -35.35437 | 149.57178 | 11100 ft | 311 kts | 227° |
| 2026-04-30 11:11 | -35.36896 | 149.55278 | 10937 ft | 301 kts | 227° |
| 2026-04-30 11:11 | -35.38308 | 149.53440 | 10790 ft | 292 kts | 227° |
| 2026-04-30 11:11 | -35.39690 | 149.51638 | 10512 ft | 289 kts | 227° |
| 2026-04-30 11:12 | -35.41068 | 149.49840 | 10083 ft | 291 kts | 227° |
| 2026-04-30 11:12 | -35.42466 | 149.48017 | 9608 ft | 293 kts | 227° |
| 2026-04-30 11:12 | -35.43854 | 149.46204 | 9249 ft | 291 kts | 227° |
| 2026-04-30 11:12 | -35.45233 | 149.44403 | 9016 ft | 285 kts | 227° |
| 2026-04-30 11:13 | -35.46570 | 149.42656 | 8988 ft | 280 kts | 227° |
| 2026-04-30 11:13 | -35.47909 | 149.40904 | 9001 ft | 281 kts | 227° |
| 2026-04-30 11:13 | -35.49231 | 149.39174 | 8781 ft | 278 kts | 227° |
| 2026-04-30 11:13 | -35.50558 | 149.37436 | 8433 ft | 278 kts | 227° |
| 2026-04-30 11:14 | -35.51878 | 149.35707 | 8090 ft | 277 kts | 227° |
| 2026-04-30 11:14 | -35.53192 | 149.33986 | 7774 ft | 276 kts | 227° |
| 2026-04-30 11:14 | -35.54481 | 149.32267 | 7333 ft | 271 kts | 231° |
| 2026-04-30 11:14 | -35.55289 | 149.30206 | 6747 ft | 269 kts | 259° |
| 2026-04-30 11:15 | -35.55585 | 149.27966 | 6127 ft | 269 kts | 262° |
| 2026-04-30 11:15 | -35.55864 | 149.25703 | 5599 ft | 267 kts | 262° |
| 2026-04-30 11:15 | -35.56085 | 149.23451 | 5417 ft | 267 kts | 271° |
| 2026-04-30 11:15 | -35.55549 | 149.21323 | 5387 ft | 262 kts | 308° |
| 2026-04-30 11:16 | -35.54146 | 149.19981 | 5410 ft | 257 kts | 339° |
| 2026-04-30 11:16 | -35.52427 | 149.19441 | 5416 ft | 255 kts | 356° |
| 2026-04-30 11:16 | -35.50655 | 149.19398 | 5399 ft | 254 kts | 4° |
| 2026-04-30 11:16 | -35.48884 | 149.19441 | 5251 ft | 256 kts | 2° |
| 2026-04-30 11:17 | -35.47123 | 149.19448 | 4910 ft | 249 kts | 2° |
| 2026-04-30 11:17 | -35.45428 | 149.19447 | 4603 ft | 236 kts | 2° |
| 2026-04-30 11:17 | -35.43891 | 149.19444 | 4364 ft | 205 kts | 2° |
| 2026-04-30 11:17 | -35.42542 | 149.19445 | 4078 ft | 183 kts | 3° |
| 2026-04-30 11:18 | -35.41328 | 149.19445 | 3833 ft | 166 kts | 3° |
| 2026-04-30 11:18 | -35.39239 | 149.19444 | 3442 ft | 138 kts | 3° |
| 2026-04-30 11:18 | -35.38297 | 149.19444 | 3252 ft | 133 kts | 3° |
| 2026-04-30 11:19 | -35.37378 | 149.19444 | 3054 ft | 132 kts | 2° |
| 2026-04-30 11:19 | -35.36459 | 149.19445 | 2875 ft | 132 kts | 2° |
| 2026-04-30 11:19 | -35.35537 | 149.19443 | 2683 ft | 133 kts | 1° |
| 2026-04-30 11:19 | -35.34603 | 149.19448 | 2495 ft | 136 kts | 0° |
| 2026-04-30 11:20 | -35.33659 | 149.19448 | 2320 ft | 135 kts | 1° |
| 2026-04-30 11:20 | -35.32733 | 149.19447 | 2144 ft | 131 kts | 1° |
| 2026-04-30 11:20 | -35.31813 | 149.19447 | 1998 ft | 133 kts | 1° |
| 2026-04-30 11:20 | -35.30899 | 149.19446 | 1885 ft | 125 kts | 1° |
| 2026-04-30 11:21 | -35.30197 | 149.19445 | 1882 ft | 68 kts | 360° |
| 2026-04-30 11:21 | -35.29774 | 149.19444 | 1882 ft | 35 kts | 360° |
| 2026-04-30 11:21 | -35.29638 | 149.19444 | 1878 ft | 11 kts | 5° |
| 2026-04-30 11:21 | -35.29588 | 149.19505 | 1882 ft | 10 kts | 94° |
| 2026-04-30 11:22 | -35.29621 | 149.19585 | 1882 ft | 11 kts | 151° |
| 2026-04-30 11:22 | -35.29709 | 149.19593 | 1882 ft | 15 kts | 180° |
| 2026-04-30 11:22 | -35.29819 | 149.19593 | 1882 ft | 18 kts | 180° |
| 2026-04-30 11:22 | -35.29960 | 149.19594 | 1882 ft | 23 kts | 180° |
| 2026-04-30 11:23 | -35.30124 | 149.19594 | 1881 ft | 18 kts | 180° |
| 2026-04-30 11:23 | -35.30223 | 149.19595 | 1875 ft | 9 kts | 168° |
| 2026-04-30 11:23 | -35.30350 | 149.19785 | 1882 ft | 20 kts | 126° |
| 2026-04-30 11:24 | -35.30382 | 149.19867 | 1881 ft | 8 kts | 114° |
| 2026-04-30 11:24 | -35.30393 | 149.19901 | 1880 ft | 4 kts | 121° |
| 2026-04-30 11:24 | -35.30410 | 149.19930 | 1880 ft | 2 kts | 126° |
| 2026-04-30 11:25 | -35.30410 | 149.19931 | 1880 ft | 0 kts | 126° |